createdAt,value
2018-04-07T00:00:57.419Z,7.50
2018-04-07T00:03:24.964Z,7.50
2018-04-07T00:05:52.557Z,7.50
2018-04-07T00:08:20.112Z,7.50
2018-04-07T00:10:47.717Z,7.40
2018-04-07T00:13:15.302Z,7.40
2018-04-07T00:15:42.835Z,7.40
2018-04-07T00:18:10.482Z,7.30
2018-04-07T00:20:38.286Z,7.30
2018-04-07T00:23:05.841Z,7.30
2018-04-07T00:25:33.402Z,7.30
2018-04-07T00:28:00.971Z,7.20
2018-04-07T00:30:28.827Z,7.20
2018-04-07T00:32:56.398Z,7.20
2018-04-07T00:35:23.967Z,7.20
2018-04-07T00:37:51.562Z,7.10
2018-04-07T00:40:19.110Z,7.10
2018-04-07T00:42:46.662Z,7.10
2018-04-07T00:45:14.607Z,7.00
2018-04-07T00:47:42.162Z,7.00
2018-04-07T00:50:09.717Z,6.90
2018-04-07T00:52:48.938Z,6.80
2018-04-07T00:55:16.515Z,6.80
2018-04-07T00:57:44.079Z,6.70
2018-04-07T01:00:11.626Z,6.80
2018-04-07T01:02:39.223Z,6.80
2018-04-07T01:05:06.767Z,6.80
2018-04-07T01:07:34.786Z,6.70
2018-04-07T01:10:02.333Z,6.70
2018-04-07T01:12:29.928Z,6.70
2018-04-07T01:14:57.458Z,6.70
2018-04-07T01:17:25.070Z,6.60
2018-04-07T01:19:53.007Z,6.60
2018-04-07T01:22:20.619Z,6.60
2018-04-07T01:24:48.236Z,6.60
2018-04-07T01:27:15.801Z,6.60
2018-04-07T01:29:43.390Z,6.60
2018-04-07T01:32:10.999Z,6.60
2018-04-07T01:34:38.575Z,6.50
2018-04-07T01:37:06.117Z,6.40
2018-04-07T01:39:33.655Z,6.40
2018-04-07T01:42:01.200Z,6.30
2018-04-07T01:44:28.818Z,6.40
2018-04-07T01:46:56.375Z,6.30
2018-04-07T01:49:24.360Z,6.10
2018-04-07T01:51:51.926Z,6.10
2018-04-07T01:54:19.534Z,6.10
2018-04-07T01:56:47.118Z,6.10
2018-04-07T01:59:15.119Z,6.20
2018-04-07T02:01:42.676Z,6.20
2018-04-07T02:04:10.261Z,6.20
2018-04-07T02:06:37.796Z,6.30
2018-04-07T02:09:06.214Z,6.30
2018-04-07T02:11:33.802Z,6.30
2018-04-07T02:14:01.442Z,6.20
2018-04-07T02:16:29.053Z,6.20
2018-04-07T02:18:56.625Z,6.00
2018-04-07T02:21:24.154Z,6.00
2018-04-07T02:23:51.768Z,6.00
2018-04-07T02:26:19.387Z,6.00
2018-04-07T02:28:46.976Z,6.00
2018-04-07T02:31:14.537Z,5.90
2018-04-07T02:33:42.141Z,5.80
2018-04-07T02:36:09.696Z,5.80
2018-04-07T02:38:37.263Z,5.70
2018-04-07T02:41:04.813Z,5.60
2018-04-07T02:43:32.391Z,5.50
2018-04-07T02:45:59.971Z,5.50
2018-04-07T02:48:27.542Z,5.50
2018-04-07T02:50:55.108Z,5.50
2018-04-07T02:53:22.662Z,5.50
2018-04-07T02:55:50.244Z,5.40
2018-04-07T02:58:17.811Z,5.40
2018-04-07T03:00:45.432Z,5.40
2018-04-07T03:03:13.025Z,5.40
2018-04-07T03:05:40.610Z,5.30
2018-04-07T03:08:08.142Z,5.20
2018-04-07T03:10:35.723Z,5.20
2018-04-07T03:13:03.274Z,5.10
2018-04-07T03:15:30.843Z,5.20
2018-04-07T03:17:58.467Z,5.10
2018-04-07T03:20:26.069Z,5.10
2018-04-07T03:22:53.605Z,5.10
2018-04-07T03:25:21.158Z,5.10
2018-04-07T03:27:48.742Z,5.00
2018-04-07T03:30:16.333Z,5.00
2018-04-07T03:32:43.892Z,5.00
2018-04-07T03:35:11.454Z,4.90
2018-04-07T03:37:38.999Z,4.90
2018-04-07T03:40:06.572Z,4.90
2018-04-07T03:42:34.149Z,4.80
2018-04-07T03:45:01.683Z,4.70
2018-04-07T03:47:29.256Z,4.60
2018-04-07T03:49:56.818Z,4.60
2018-04-07T03:52:24.448Z,4.50
2018-04-07T03:54:52.009Z,4.50
2018-04-07T03:57:19.599Z,4.50
2018-04-07T03:59:47.142Z,4.50
2018-04-07T04:02:14.786Z,4.40
2018-04-07T04:04:42.386Z,4.30
2018-04-07T04:07:10.383Z,4.30
2018-04-07T04:09:37.943Z,4.30
2018-04-07T04:12:05.519Z,4.30
2018-04-07T04:14:33.085Z,4.30
2018-04-07T04:17:00.656Z,4.20
2018-04-07T04:19:28.203Z,4.20
2018-04-07T04:21:55.769Z,4.20
2018-04-07T04:24:23.295Z,4.20
2018-04-07T04:26:50.906Z,4.20
2018-04-07T04:29:18.460Z,4.10
2018-04-07T04:31:46.048Z,4.00
2018-04-07T04:34:13.629Z,3.90
2018-04-07T04:36:41.251Z,3.90
2018-04-07T04:39:08.822Z,3.80
2018-04-07T04:41:36.808Z,3.80
2018-04-07T04:44:04.358Z,3.90
2018-04-07T04:46:31.979Z,3.90
2018-04-07T04:48:59.553Z,4.00
2018-04-07T04:51:27.132Z,3.90
2018-04-07T04:53:54.729Z,3.80
2018-04-07T04:56:22.272Z,3.80
2018-04-07T04:58:49.865Z,3.70
2018-04-07T05:01:17.435Z,3.60
2018-04-07T05:03:45.009Z,3.60
2018-04-07T05:06:12.968Z,3.60
2018-04-07T05:08:40.563Z,3.50
2018-04-07T05:11:08.359Z,3.60
2018-04-07T05:13:35.932Z,3.60
2018-04-07T05:16:03.494Z,3.70
2018-04-07T05:18:31.116Z,3.70
2018-04-07T05:20:58.928Z,3.80
2018-04-07T05:23:26.555Z,3.80
2018-04-07T05:25:54.128Z,3.90
2018-04-07T05:28:21.724Z,3.90
2018-04-07T05:30:49.647Z,3.90
2018-04-07T05:33:17.272Z,3.90
2018-04-07T05:35:44.870Z,3.90
2018-04-07T05:38:12.444Z,4.00
2018-04-07T05:40:39.995Z,4.00
2018-04-07T05:43:07.609Z,4.00
2018-04-07T05:45:35.204Z,4.10
2018-04-07T05:48:02.901Z,4.20
2018-04-07T05:50:30.459Z,4.20
2018-04-07T05:52:58.067Z,4.30
2018-04-07T05:55:25.596Z,4.40
2018-04-07T05:57:53.178Z,4.50
2018-04-07T06:00:20.751Z,4.60
2018-04-07T06:02:49.192Z,4.80
2018-04-07T06:05:16.782Z,4.90
2018-04-07T06:07:44.357Z,5.00
2018-04-07T06:10:11.948Z,5.10
2018-04-07T06:12:39.540Z,5.30
2018-04-07T06:15:07.123Z,5.50
2018-04-07T06:17:34.654Z,5.60
2018-04-07T06:20:02.251Z,5.80
2018-04-07T06:22:29.816Z,5.90
2018-04-07T06:24:57.350Z,6.00
2018-04-07T06:27:24.887Z,6.20
2018-04-07T06:29:52.468Z,6.40
2018-04-07T06:32:20.030Z,6.50
2018-04-07T06:34:47.595Z,6.70
2018-04-07T06:37:15.136Z,6.80
2018-04-07T06:39:42.732Z,6.90
2018-04-07T06:42:10.328Z,7.10
2018-04-07T06:44:37.949Z,7.30
2018-04-07T06:47:05.524Z,7.50
2018-04-07T06:49:33.108Z,7.70
2018-04-07T06:52:00.667Z,7.90
2018-04-07T06:54:28.252Z,8.10
2018-04-07T06:56:55.770Z,8.30
2018-04-07T06:59:23.380Z,8.50
2018-04-07T07:01:50.927Z,8.70
2018-04-07T07:04:18.526Z,8.90
2018-04-07T07:06:46.072Z,8.90
2018-04-07T07:09:13.628Z,8.90
2018-04-07T07:11:41.227Z,9.10
2018-04-07T07:14:08.833Z,9.20
2018-04-07T07:16:36.391Z,9.30
2018-04-07T07:19:03.966Z,9.40
2018-04-07T07:21:31.528Z,9.50
2018-04-07T07:23:59.081Z,9.70
2018-04-07T07:26:26.668Z,9.80
2018-04-07T07:28:54.224Z,9.90
2018-04-07T07:31:21.781Z,10.10
2018-04-07T07:33:49.371Z,10.30
2018-04-07T07:36:16.976Z,10.60
2018-04-07T07:38:44.567Z,10.80
2018-04-07T07:41:12.166Z,11.00
2018-04-07T07:43:39.702Z,11.30
2018-04-07T07:46:07.237Z,11.60
2018-04-07T07:48:35.160Z,11.90
2018-04-07T07:51:02.725Z,11.90
2018-04-07T07:53:30.308Z,12.00
2018-04-07T07:55:58.246Z,12.50
2018-04-07T07:58:25.805Z,12.50
2018-04-07T08:00:53.390Z,12.60
2018-04-07T08:03:21.351Z,13.20
2018-04-07T08:05:48.970Z,13.20
2018-04-07T08:08:16.518Z,13.60
2018-04-07T08:10:44.099Z,14.00
2018-04-07T08:13:11.670Z,14.40
2018-04-07T08:15:39.364Z,14.70
2018-04-07T08:18:07.307Z,15.20
2018-04-07T08:20:34.920Z,15.20
2018-04-07T08:23:02.467Z,15.60
2018-04-07T08:25:30.059Z,16.00
2018-04-07T08:27:57.601Z,16.40
2018-04-07T08:30:25.231Z,16.50
2018-04-07T08:32:52.784Z,16.60
2018-04-07T08:35:20.390Z,17.10
2018-04-07T08:37:47.993Z,17.60
2018-04-07T08:40:15.626Z,17.90
2018-04-07T08:42:43.178Z,18.20
2018-04-07T08:45:10.724Z,18.40
2018-04-07T08:47:38.339Z,18.70
2018-04-07T08:50:05.927Z,18.70
2018-04-07T08:52:33.493Z,18.90
2018-04-07T08:55:01.034Z,18.80
2018-04-07T08:57:28.649Z,18.40
2018-04-07T08:59:56.190Z,18.20
2018-04-07T09:02:23.755Z,18.30
2018-04-07T09:04:51.342Z,18.20
2018-04-07T09:07:19.314Z,18.50
2018-04-07T09:09:46.914Z,18.50
2018-04-07T09:12:14.513Z,19.10
2018-04-07T09:14:42.112Z,19.80
2018-04-07T09:17:09.693Z,20.10
2018-04-07T09:19:37.253Z,20.40
2018-04-07T09:22:04.868Z,20.50
2018-04-07T09:24:32.436Z,20.50
2018-04-07T09:27:00.073Z,20.10
2018-04-07T09:29:27.670Z,20.20
2018-04-07T09:31:55.514Z,20.50
2018-04-07T09:34:23.074Z,20.90
2018-04-07T09:36:50.646Z,21.20
2018-04-07T09:39:18.192Z,21.40
2018-04-07T09:41:45.754Z,21.50
2018-04-07T09:44:13.325Z,21.90
2018-04-07T09:46:40.878Z,22.00
2018-04-07T09:49:08.492Z,21.80
2018-04-07T09:51:36.119Z,21.90
2018-04-07T09:54:03.744Z,22.20
2018-04-07T09:56:31.336Z,22.60
2018-04-07T09:58:58.871Z,22.80
2018-04-07T10:01:29.298Z,22.90
2018-04-07T10:03:56.896Z,23.20
2018-04-07T10:06:24.445Z,23.60
2018-04-07T10:08:52.014Z,23.60
2018-04-07T10:11:19.572Z,24.00
2018-04-07T10:13:47.117Z,24.00
2018-04-07T10:16:14.724Z,23.60
2018-04-07T10:18:42.324Z,23.40
2018-04-07T10:21:09.852Z,23.50
2018-04-07T10:23:37.455Z,23.50
2018-04-07T10:26:05.320Z,23.70
2018-04-07T10:28:32.938Z,24.10
2018-04-07T10:31:00.515Z,24.50
2018-04-07T10:33:28.127Z,24.80
2018-04-07T10:35:55.704Z,25.00
2018-04-07T10:38:23.672Z,24.80
2018-04-07T10:40:51.194Z,24.90
2018-04-07T10:43:18.758Z,24.90
2018-04-07T10:45:46.307Z,24.80
2018-04-07T10:48:13.933Z,24.40
2018-04-07T10:50:41.479Z,24.40
2018-04-07T10:53:09.018Z,24.50
2018-04-07T10:55:36.604Z,24.60
2018-04-07T10:58:04.187Z,24.70
2018-04-07T11:00:31.820Z,25.10
2018-04-07T11:02:59.391Z,25.20
2018-04-07T11:05:26.922Z,25.40
2018-04-07T11:07:54.494Z,25.60
2018-04-07T11:10:22.049Z,25.40
2018-04-07T11:12:49.625Z,25.40
2018-04-07T11:15:17.220Z,24.80
2018-04-07T11:17:44.791Z,24.60
2018-04-07T11:20:12.337Z,24.50
2018-04-07T11:22:39.924Z,24.80
2018-04-07T11:25:07.539Z,24.70
2018-04-07T11:27:35.158Z,25.30
2018-04-07T11:30:02.715Z,25.70
2018-04-07T11:32:30.420Z,25.80
2018-04-07T11:34:58.101Z,25.90
2018-04-07T11:37:25.687Z,25.40
2018-04-07T11:39:53.273Z,25.00
2018-04-07T11:42:20.846Z,24.90
2018-04-07T11:44:48.477Z,24.90
2018-04-07T11:47:16.019Z,25.40
2018-04-07T11:49:43.608Z,25.80
2018-04-07T11:52:11.148Z,25.60
2018-04-07T11:54:38.782Z,25.70
2018-04-07T11:57:06.742Z,26.50
2018-04-07T11:59:34.714Z,27.10
2018-04-07T12:02:02.699Z,27.60
2018-04-07T12:04:30.272Z,27.60
2018-04-07T12:06:57.826Z,27.80
2018-04-07T12:09:25.381Z,27.50
2018-04-07T12:11:52.959Z,27.60
2018-04-07T12:14:20.552Z,27.10
2018-04-07T12:16:48.077Z,26.90
2018-04-07T12:19:15.629Z,26.50
2018-04-07T12:21:43.202Z,26.80
2018-04-07T12:24:10.777Z,27.40
2018-04-07T12:26:38.380Z,28.00
2018-04-07T12:29:06.013Z,28.40
2018-04-07T12:31:33.540Z,28.70
2018-04-07T12:34:01.078Z,28.70
2018-04-07T12:36:28.627Z,28.80
2018-04-07T12:38:56.236Z,28.90
2018-04-07T12:41:23.768Z,28.70
2018-04-07T12:43:51.341Z,28.50
2018-04-07T12:46:18.883Z,28.90
2018-04-07T12:48:46.484Z,29.00
2018-04-07T12:51:14.431Z,29.50
2018-04-07T12:53:43.045Z,29.50
2018-04-07T12:56:10.612Z,29.80
2018-04-07T12:58:38.158Z,30.20
2018-04-07T13:01:05.738Z,30.30
2018-04-07T13:03:33.635Z,30.60
2018-04-07T13:06:01.299Z,30.90
2018-04-07T13:08:28.844Z,31.20
2018-04-07T13:10:56.458Z,31.60
2018-04-07T13:13:24.055Z,31.90
2018-04-07T13:15:51.636Z,32.10
2018-04-07T13:18:19.174Z,32.50
2018-04-07T13:20:46.749Z,33.00
2018-04-07T13:23:14.293Z,32.90
2018-04-07T13:25:41.857Z,32.90
2018-04-07T13:28:09.408Z,33.00
2018-04-07T13:30:36.979Z,33.10
2018-04-07T13:33:04.600Z,33.80
2018-04-07T13:35:32.204Z,34.10
2018-04-07T13:37:59.742Z,34.50
2018-04-07T13:40:27.339Z,34.60
2018-04-07T13:42:54.888Z,35.20
2018-04-07T13:45:22.492Z,35.70
2018-04-07T13:47:50.067Z,36.50
2018-04-07T13:50:17.697Z,36.90
2018-04-07T13:52:45.308Z,37.40
2018-04-07T13:55:12.916Z,38.30
2018-04-07T13:57:40.454Z,38.50
2018-04-07T14:00:08.077Z,39.00
2018-04-07T14:02:35.618Z,39.30
2018-04-07T14:05:03.202Z,39.40
2018-04-07T14:07:30.768Z,39.90
2018-04-07T14:09:58.368Z,40.20
2018-04-07T14:12:26.290Z,41.80
2018-04-07T14:14:53.834Z,41.80
2018-04-07T14:17:21.415Z,42.30
2018-04-07T14:19:48.949Z,42.50
2018-04-07T14:22:16.573Z,42.50
2018-04-07T14:24:44.194Z,42.10
2018-04-07T14:27:11.762Z,41.60
2018-04-07T14:29:39.317Z,41.90
2018-04-07T14:32:06.930Z,42.00
2018-04-07T14:34:34.452Z,42.90
2018-04-07T14:37:02.378Z,44.00
2018-04-07T14:39:29.943Z,44.00
2018-04-07T14:41:57.514Z,44.70
2018-04-07T14:44:25.086Z,44.90
2018-04-07T14:46:52.675Z,44.90
2018-04-07T14:49:20.238Z,44.40
2018-04-07T14:51:47.783Z,43.20
2018-04-07T14:54:15.359Z,42.60
2018-04-07T14:56:42.960Z,42.70
2018-04-07T14:59:10.527Z,43.00
2018-04-07T15:01:38.139Z,43.20
2018-04-07T15:04:05.702Z,43.40
2018-04-07T15:06:33.258Z,43.70
2018-04-07T15:09:01.029Z,44.00
2018-04-07T15:11:28.637Z,44.20
2018-04-07T15:13:56.215Z,44.40
2018-04-07T15:16:23.753Z,44.00
2018-04-07T15:18:51.328Z,43.90
2018-04-07T15:21:18.904Z,43.90
2018-04-07T15:23:46.471Z,43.60
2018-04-07T15:26:14.056Z,43.80
2018-04-07T15:28:41.658Z,43.80
2018-04-07T15:31:09.261Z,44.20
2018-04-07T15:33:37.192Z,44.30
2018-04-07T15:36:04.783Z,44.20
2018-04-07T15:38:32.328Z,44.00
2018-04-07T15:40:59.885Z,43.50
2018-04-07T15:43:27.457Z,43.10
2018-04-07T15:45:55.013Z,42.70
2018-04-07T15:48:22.596Z,41.80
2018-04-07T15:50:50.143Z,40.80
2018-04-07T15:53:17.725Z,40.40
2018-04-07T15:55:45.248Z,41.10
2018-04-07T15:58:12.842Z,41.30
2018-04-07T16:00:40.372Z,41.50
2018-04-07T16:03:07.949Z,41.50
2018-04-07T16:05:35.520Z,41.10
2018-04-07T16:08:03.142Z,41.20
2018-04-07T16:10:30.636Z,41.20
2018-04-07T16:12:58.222Z,41.40
2018-04-07T16:15:26.134Z,40.70
2018-04-07T16:17:54.103Z,40.50
2018-04-07T16:20:21.671Z,40.50
2018-04-07T16:22:49.291Z,40.40
2018-04-07T16:25:16.902Z,40.10
2018-04-07T16:27:44.454Z,40.10
2018-04-07T16:30:11.997Z,39.80
2018-04-07T16:32:39.573Z,39.90
2018-04-07T16:35:07.224Z,39.40
2018-04-07T16:37:34.852Z,38.80
2018-04-07T16:40:02.479Z,38.50
2018-04-07T16:42:30.526Z,38.10
2018-04-07T16:44:58.109Z,38.10
2018-04-07T16:47:25.709Z,38.00
2018-04-07T16:49:53.251Z,37.60
2018-04-07T16:52:20.841Z,37.00
2018-04-07T16:54:48.458Z,36.90
2018-04-07T16:57:16.437Z,36.50
2018-04-07T16:59:44.238Z,36.00
2018-04-07T17:02:11.950Z,35.80
2018-04-07T17:04:40.099Z,36.00
2018-04-07T17:07:07.701Z,35.90
2018-04-07T17:09:35.694Z,35.50
2018-04-07T17:12:03.711Z,35.10
2018-04-07T17:14:31.340Z,35.10
2018-04-07T17:16:58.910Z,34.70
2018-04-07T17:19:26.720Z,34.40
2018-04-07T17:21:54.714Z,33.80
2018-04-07T17:24:22.629Z,33.10
2018-04-07T17:26:50.705Z,32.50
2018-04-07T17:29:18.688Z,31.90
2018-04-07T17:31:46.517Z,31.70
2018-04-07T17:34:14.533Z,31.30
2018-04-07T17:36:43.246Z,30.80
2018-04-07T17:39:10.962Z,29.90
2018-04-07T17:41:38.532Z,28.80
2018-04-07T17:44:06.327Z,27.70
2018-04-07T17:46:33.905Z,26.80
2018-04-07T17:49:06.237Z,25.50
2018-04-07T17:51:29.562Z,25.50
2018-04-07T17:53:57.226Z,25.00
2018-04-07T17:56:24.812Z,24.60
2018-04-07T17:58:52.400Z,24.20
2018-04-07T18:01:20.069Z,23.80
2018-04-07T18:03:47.748Z,23.50
2018-04-07T18:06:15.869Z,22.80
2018-04-07T18:08:43.430Z,22.80
2018-04-07T18:11:11.021Z,22.60
2018-04-07T18:13:38.709Z,22.40
2018-04-07T18:16:16.756Z,22.10
2018-04-07T18:18:44.383Z,21.80
2018-04-07T18:21:11.951Z,21.40
2018-04-07T18:23:39.504Z,21.10
2018-04-07T18:26:07.076Z,20.80
2018-04-07T18:28:34.636Z,20.60
2018-04-07T18:31:02.253Z,20.40
2018-04-07T18:33:29.832Z,20.20
2018-04-07T18:35:57.484Z,20.10
2018-04-07T18:38:25.129Z,19.90
2018-04-07T18:40:53.082Z,19.70
2018-04-07T18:43:20.617Z,19.70
2018-04-07T18:45:48.179Z,19.50
2018-04-07T18:48:15.694Z,19.30
2018-04-07T18:50:43.274Z,19.00
2018-04-07T18:53:10.819Z,18.80
2018-04-07T18:55:38.376Z,18.60
2018-04-07T18:58:05.948Z,18.30
2018-04-07T19:00:33.541Z,18.20
2018-04-07T19:03:01.107Z,18.00
2018-04-07T19:05:28.728Z,17.90
2018-04-07T19:07:56.331Z,17.80
2018-04-07T19:10:23.917Z,17.70
2018-04-07T19:12:51.516Z,17.60
2018-04-07T19:15:19.152Z,17.50
2018-04-07T19:17:46.696Z,17.30
2018-04-07T19:20:14.310Z,17.10
2018-04-07T19:22:41.927Z,16.90
2018-04-07T19:25:09.569Z,16.70
2018-04-07T19:27:37.168Z,16.60
2018-04-07T19:30:04.728Z,16.50
2018-04-07T19:32:32.374Z,16.40
2018-04-07T19:35:00.001Z,16.30
2018-04-07T19:37:28.165Z,16.10
2018-04-07T19:39:55.782Z,16.10
2018-04-07T19:42:23.686Z,16.10
2018-04-07T19:44:51.268Z,16.00
2018-04-07T19:47:18.854Z,15.90
2018-04-07T19:49:46.449Z,15.70
2018-04-07T19:52:14.065Z,15.60
2018-04-07T19:54:41.624Z,15.40
2018-04-07T19:57:09.273Z,15.30
2018-04-07T19:59:36.817Z,15.10
2018-04-07T20:02:05.526Z,15.00
2018-04-07T20:04:33.143Z,14.90
2018-04-07T20:07:01.156Z,14.70
2018-04-07T20:09:28.714Z,14.70
2018-04-07T20:11:56.288Z,14.60
2018-04-07T20:14:23.865Z,14.50
2018-04-07T20:16:51.500Z,14.40
2018-04-07T20:19:19.058Z,14.30
2018-04-07T20:21:46.632Z,14.20
2018-04-07T20:24:14.188Z,14.10
2018-04-07T20:26:41.735Z,14.10
2018-04-07T20:29:09.279Z,14.00
2018-04-07T20:31:36.888Z,14.00
2018-04-07T20:34:04.506Z,13.90
2018-04-07T20:36:32.058Z,13.90
2018-04-07T20:38:59.631Z,13.80
2018-04-07T20:41:27.199Z,13.70
2018-04-07T20:43:54.767Z,13.60
2018-04-07T20:46:22.411Z,13.60
2018-04-07T20:48:50.015Z,13.40
2018-04-07T20:51:17.959Z,13.20
2018-04-07T20:53:45.540Z,13.20
2018-04-07T20:56:13.165Z,13.10
2018-04-07T20:58:40.800Z,13.00
2018-04-07T21:01:08.374Z,13.00
2018-04-07T21:03:35.936Z,12.90
2018-04-07T21:06:03.534Z,12.80
2018-04-07T21:08:31.520Z,12.70
2018-04-07T21:10:59.080Z,12.70
2018-04-07T21:13:26.697Z,12.60
2018-04-07T21:15:54.291Z,12.50
2018-04-07T21:18:24.020Z,12.50
2018-04-07T21:20:51.602Z,12.40
2018-04-07T21:23:19.260Z,12.30
2018-04-07T21:25:46.844Z,12.20
2018-04-07T21:28:14.456Z,12.10
2018-04-07T21:30:42.026Z,12.10
2018-04-07T21:33:10.696Z,12.00
2018-04-07T21:35:38.308Z,12.00
2018-04-07T21:38:05.902Z,12.00
2018-04-07T21:40:33.567Z,11.90
2018-04-07T21:43:01.238Z,11.90
2018-04-07T21:45:28.817Z,11.90
2018-04-07T21:47:56.514Z,11.80
2018-04-07T21:50:24.066Z,11.80
2018-04-07T21:52:51.640Z,11.70
2018-04-07T21:55:25.978Z,11.60
2018-04-07T21:57:53.577Z,11.60
2018-04-07T22:00:21.201Z,11.60
2018-04-07T22:02:48.760Z,11.50
2018-04-07T22:05:16.336Z,11.40
2018-04-07T22:07:43.889Z,11.30
2018-04-07T22:10:11.869Z,11.20
2018-04-07T22:12:39.657Z,11.20
2018-04-07T22:15:07.300Z,11.10
2018-04-07T22:17:34.842Z,11.10
2018-04-07T22:20:02.574Z,11.10
2018-04-07T22:22:30.125Z,11.10
2018-04-07T22:24:57.759Z,11.10
2018-04-07T22:27:25.453Z,11.00
2018-04-07T22:29:54.395Z,11.00
2018-04-07T22:32:22.072Z,10.90
2018-04-07T22:34:49.662Z,10.80
2018-04-07T22:37:17.216Z,10.70
2018-04-07T22:39:44.810Z,10.70
2018-04-07T22:42:12.346Z,10.70
2018-04-07T22:44:39.907Z,10.70
2018-04-07T22:47:07.493Z,10.70
2018-04-07T22:49:35.072Z,10.80
2018-04-07T22:52:02.632Z,10.80
2018-04-07T22:54:30.200Z,10.80
2018-04-07T22:56:57.746Z,10.70
2018-04-07T22:59:25.333Z,10.60
2018-04-07T23:01:52.958Z,10.60
2018-04-07T23:04:20.548Z,10.60
2018-04-07T23:06:48.151Z,10.50
2018-04-07T23:09:15.692Z,10.50
2018-04-07T23:11:43.246Z,10.40
2018-04-07T23:14:10.794Z,10.40
2018-04-07T23:16:38.372Z,10.30
2018-04-07T23:19:06.026Z,10.20
2018-04-07T23:21:33.605Z,10.20
2018-04-07T23:24:01.176Z,10.10
2018-04-07T23:26:28.777Z,10.00
2018-04-07T23:28:56.352Z,9.90
2018-04-07T23:31:23.910Z,9.80
2018-04-07T23:33:51.474Z,9.80
2018-04-07T23:36:19.065Z,9.70
2018-04-07T23:38:46.613Z,9.70
2018-04-07T23:41:14.411Z,9.70
2018-04-07T23:43:41.977Z,9.70
2018-04-07T23:46:09.565Z,9.80
2018-04-07T23:48:37.148Z,9.80
2018-04-07T23:51:04.727Z,9.90
2018-04-07T23:53:32.675Z,9.90
2018-04-07T23:56:00.245Z,9.90
2018-04-07T23:58:27.826Z,9.90
